KCSV

Crossville Memorial-Whitson Field Airport

Crossville, Tennessee, USA
KCSV 122331Z 1300/1324 18005KT P6SM OVC020 FM131900 15007G15KT P6SM BKN025 OVC150
Issued Valid From Valid To
Dec-12 @ 23:31 UTC
(2 hours ago)
Dec-13 @ 00:00 UTC
(2 hours ago)
Dec-14 @ 00:00 UTC
(in 22 hours)
Dec-13 @ 00:00 to Dec-13 @ 19:00
KCSV 122331Z 1300/1324 18005KT P6SM OVC020
Wind Visibility Clouds
180° at 5 knots Greater than 6 miles
  • Overcast at 2,000' AGL
From Dec-13 @ 19:00 to Dec-14 @ 00:00
FM131900 15007G15KT P6SM BKN025 OVC150
Wind Visibility Clouds
150° at 7 knots
 Gusting to 15 knots
Greater than 6 miles
  • Broken at 2,500' AGL
  • Overcast at 15,000' AGL
KCSV 122331Z 1300/1324 18005KT P6SM OVC020 FM131900 15007G15KT P6SM BKN025 OVC150
Issued Dec-12 @ 23:31 UTC
(2 hours ago)
Valid From Dec-13 @ 00:00 UTC
(2 hours ago)
Valid To Dec-14 @ 00:00 UTC
(in 22 hours)
Dec-13 @ 00:00 - Dec-13 @ 19:00
Wind Visibility
180° at 5 knots Greater than 6 miles
Clouds
  • Overcast at 2,000' AGL
From Dec-13 @ 19:00 - Dec-14 @ 00:00
Wind Visibility
150° at 7 knots
 Gusting to 15 knots
Greater than 6 miles
Clouds
  • Broken at 2,500' AGL
  • Overcast at 15,000' AGL